Cuprija, Serbia
Current Conditions -  °F | °C
As of 7:30 PM on Thursday 30 Oct 2014 (Local Time) from LYKV Reporting Station
Haze Haze  
Wind Chill: 46°   Ceiling: 3000
Heat Index: 46°   Visibility: 1.8mi
Dew Point: 43°   Wind: 3mph
Humidity: 87%   Direction: 290°WNW
Pressure: 30.3"   Gusts: NA
Location:  43.93°N, 21.38°E
Report Text: LYKV 301730Z 29003KT 270V330 3000 BR BKN030 08/06 Q1026 NOSIG
Loading
Personal Weather Stations






























Interactive Weather Map
Tropical Storm Tracking
New forecast layout! Learn more

10-Day Weather Forecast

Advertisements
Track Severe Weather on mobile